Time;durP1;ratioP1;P1;durP2;ratioP2;P2;SDS_P1;SDS_P2;PMS_P1;PMS_P2;Temp;Humidity;BMP_temperature;BMP_pressure;BME280_temperature;BME280_humidity;BME280_pressure;Samples;Min_cycle;Max_cycle;Signal;HPM_P1;HPM_P2
2023/05/08 00:00:04;;;;;;;16.67;15.00;;;;;;;13.98;100.00;101938.84;1052185;28;20776;-77
2023/05/08 00:00:35;;;;;;;16.00;14.40;;;;;;;13.99;100.00;101937.00;1050590;28;20298;-77
2023/05/08 00:01:07;;;;;;;15.65;14.02;;;;;;;13.89;100.00;101935.56;1052262;28;20298;-77
2023/05/08 00:01:39;;;;;;;16.90;15.20;;;;;;;13.82;100.00;101936.63;1051661;28;20441;-77
2023/05/08 00:02:10;;;;;;;14.88;13.48;;;;;;;13.72;100.00;101936.25;1052092;28;21199;-78
2023/05/08 00:02:42;;;;;;;15.88;14.38;;;;;;;13.74;100.00;101943.06;1052212;28;20297;-77
2023/05/08 00:03:14;;;;;;;17.48;15.73;;;;;;;13.82;100.00;101942.81;1051888;28;20297;-87
2023/05/08 00:03:45;;;;;;;15.98;14.50;;;;;;;13.82;100.00;101940.13;1051911;28;20314;-87
2023/05/08 00:04:19;;;;;;;16.98;15.18;;;;;;;13.69;100.00;101937.47;1052166;28;20040;-87
2023/05/08 00:04:51;;;;;;;16.67;15.02;;;;;;;13.65;100.00;101932.75;1052251;28;20360;-87
2023/05/08 00:05:22;;;;;;;15.55;14.15;;;;;;;13.55;100.00;101938.56;1051769;28;20385;-87
2023/05/08 00:05:54;;;;;;;18.42;15.07;;;;;;;13.57;100.00;101931.13;1052282;28;20313;-87
2023/05/08 00:06:28;;;;;;;17.25;15.32;;;;;;;13.46;100.00;101939.81;1052869;28;20300;-87
2023/05/08 00:07:00;;;;;;;16.38;14.73;;;;;;;13.49;100.00;101934.03;1052575;28;20298;-87
2023/05/08 00:07:32;;;;;;;16.25;13.43;;;;;;;13.66;100.00;101940.56;1051893;28;20294;-88
2023/05/08 00:08:03;;;;;;;15.68;14.10;;;;;;;13.79;100.00;101939.75;1050933;28;20547;-78
2023/05/08 00:08:35;;;;;;;17.63;15.75;;;;;;;13.86;100.00;101933.31;1052244;28;20051;-77
2023/05/08 00:09:06;;;;;;;17.83;16.10;;;;;;;13.90;100.00;101937.22;1051953;28;20294;-87
2023/05/08 00:09:38;;;;;;;16.98;15.10;;;;;;;13.65;100.00;101933.56;1051609;28;20305;-87
2023/05/08 00:10:10;;;;;;;16.52;14.90;;;;;;;13.74;100.00;101937.69;1051615;28;20302;-87
2023/05/08 00:10:42;;;;;;;17.45;15.77;;;;;;;13.84;100.00;101931.88;1051624;28;20306;-78
2023/05/08 00:11:14;;;;;;;16.80;15.15;;;;;;;13.90;100.00;101934.53;1047914;28;20303;-77
2023/05/08 00:11:45;;;;;;;17.60;15.90;;;;;;;13.88;100.00;101933.94;1048190;28;20415;-77
2023/05/08 00:12:17;;;;;;;16.98;15.27;;;;;;;13.87;100.00;101931.47;1048177;28;20294;-78
2023/05/08 00:12:48;;;;;;;20.60;15.32;;;;;;;13.73;100.00;101928.03;1048106;28;20420;-77
2023/05/08 00:13:20;;;;;;;19.05;16.48;;;;;;;13.59;100.00;101931.75;1051877;28;20298;-78
2023/05/08 00:13:52;;;;;;;15.52;14.02;;;;;;;13.58;100.00;101927.41;1052416;28;20293;-77
2023/05/08 00:14:23;;;;;;;15.90;14.25;;;;;;;13.54;100.00;101934.22;1049681;28;20815;-77
2023/05/08 00:14:55;;;;;;;16.65;15.02;;;;;;;13.45;100.00;101933.63;1051668;28;20307;-77
2023/05/08 00:15:26;;;;;;;16.63;14.93;;;;;;;13.38;100.00;101931.97;1052102;28;20625;-78
2023/05/08 00:15:58;;;;;;;17.77;16.02;;;;;;;13.30;100.00;101933.84;1052382;28;20656;-77
2023/05/08 00:16:30;;;;;;;16.27;14.55;;;;;;;13.37;100.00;101933.84;1052227;28;20040;-77
2023/05/08 00:17:02;;;;;;;16.42;14.88;;;;;;;13.27;100.00;101934.25;1047649;28;20299;-77
2023/05/08 00:17:34;;;;;;;15.75;14.25;;;;;;;13.28;100.00;101937.75;1047819;28;20294;-77
2023/05/08 00:18:06;;;;;;;16.65;14.95;;;;;;;13.32;100.00;101938.16;1047684;28;20326;-77
2023/05/08 00:18:38;;;;;;;18.08;16.30;;;;;;;13.29;100.00;101934.88;1048436;28;20102;-77
2023/05/08 00:19:09;;;;;;;17.10;15.40;;;;;;;13.38;100.00;101940.84;1051603;28;20811;-77
2023/05/08 00:19:41;;;;;;;16.17;14.68;;;;;;;13.41;100.00;101937.72;1052539;28;20778;-77
2023/05/08 00:20:13;;;;;;;20.13;17.55;;;;;;;13.41;100.00;101939.59;1052111;28;20313;-77
2023/05/08 00:20:45;;;;;;;18.92;17.02;;;;;;;13.37;100.00;101935.69;1051804;28;20126;-77
2023/05/08 00:21:16;;;;;;;19.02;16.88;;;;;;;13.38;100.00;101932.81;1052187;28;20297;-86
2023/05/08 00:21:48;;;;;;;19.50;17.38;;;;;;;13.43;100.00;101943.72;1052265;28;20051;-87
2023/05/08 00:22:20;;;;;;;17.75;15.88;;;;;;;13.41;100.00;101939.59;1051905;28;20324;-87
2023/05/08 00:22:51;;;;;;;19.23;17.20;;;;;;;13.42;100.00;101941.22;1052010;28;20348;-77
2023/05/08 00:23:23;;;;;;;18.38;16.58;;;;;;;13.39;100.00;101938.97;1052125;28;20301;-77
2023/05/08 00:23:54;;;;;;;20.85;17.70;;;;;;;13.29;100.00;101940.22;1052380;28;20301;-78
2023/05/08 00:24:26;;;;;;;17.85;16.15;;;;;;;13.27;100.00;101944.97;1052053;28;20654;-77
2023/05/08 00:24:58;;;;;;;19.08;17.30;;;;;;;13.14;100.00;101942.25;1051516;28;20385;-77
2023/05/08 00:25:30;;;;;;;19.13;17.13;;;;;;;13.11;100.00;101944.50;1052114;28;20043;-78
2023/05/08 00:26:02;;;;;;;19.52;17.58;;;;;;;13.06;100.00;101945.13;1051916;28;20811;-78
2023/05/08 00:26:34;;;;;;;17.95;16.35;;;;;;;13.11;100.00;101939.16;1051810;28;20373;-78
2023/05/08 00:27:07;;;;;;;18.13;15.90;;;;;;;13.06;100.00;101945.13;1047694;28;20302;-78
2023/05/08 00:27:38;;;;;;;18.88;16.98;;;;;;;13.09;100.00;101944.72;1043901;28;20305;-77
2023/05/08 00:28:10;;;;;;;17.98;16.23;;;;;;;13.09;100.00;101949.25;1043267;28;20307;-77
2023/05/08 00:28:41;;;;;;;16.83;15.10;;;;;;;13.03;100.00;101948.22;1044197;28;20037;-77
2023/05/08 00:29:13;;;;;;;17.63;15.73;;;;;;;13.01;100.00;101947.63;1048342;28;20306;-77
2023/05/08 00:29:44;;;;;;;17.65;15.85;;;;;;;12.91;100.00;101942.69;1051845;28;20184;-77
2023/05/08 00:30:17;;;;;;;17.95;16.13;;;;;;;13.02;100.00;101940.41;1048176;28;20306;-77
2023/05/08 00:30:49;;;;;;;18.63;16.52;;;;;;;12.97;100.00;101939.19;1047530;28;20824;-77
2023/05/08 00:31:22;;;;;;;18.23;16.38;;;;;;;12.97;100.00;101946.38;1048322;28;20083;-77
2023/05/08 00:31:54;;;;;;;17.75;15.95;;;;;;;12.94;100.00;101944.13;1044196;28;20890;-77
2023/05/08 00:32:26;;;;;;;18.55;16.75;;;;;;;12.96;100.00;101944.72;1048079;28;20287;-78
2023/05/08 00:32:58;;;;;;;18.30;16.42;;;;;;;12.93;100.00;101945.97;1051922;28;20390;-78
2023/05/08 00:33:30;;;;;;;17.80;16.08;;;;;;;12.88;100.00;101945.75;1044678;28;20746;-87
2023/05/08 00:34:02;;;;;;;16.60;14.98;;;;;;;12.93;100.00;101945.16;1047312;28;20315;-87
2023/05/08 00:34:34;;;;;;;18.48;16.63;;;;;;;13.12;100.00;101936.28;1047282;28;20247;-87
2023/05/08 00:35:07;;;;;;;17.73;16.08;;;;;;;13.38;100.00;101943.50;1043901;28;20068;-87
2023/05/08 00:35:41;;;;;;;18.90;17.05;;;;;;;13.39;100.00;101947.00;1048575;28;20909;-87
2023/05/08 00:36:14;;;;;;;16.85;15.25;;;;;;;13.41;100.00;101947.63;1052039;28;20708;-87
2023/05/08 00:36:46;;;;;;;18.52;16.73;;;;;;;13.45;100.00;101946.19;1052049;28;20298;-87
2023/05/08 00:37:17;;;;;;;20.02;17.15;;;;;;;13.28;100.00;101941.25;1052102;28;20290;-87
2023/05/08 00:37:49;;;;;;;17.92;16.02;;;;;;;13.24;100.00;101936.53;1052353;28;20194;-87
2023/05/08 00:38:21;;;;;;;18.95;17.15;;;;;;;13.19;100.00;101947.88;1051572;28;20306;-85
2023/05/08 00:38:52;;;;;;;18.73;16.83;;;;;;;13.14;100.00;101942.25;1051894;28;20306;-87
2023/05/08 00:39:25;;;;;;;17.98;16.02;;;;;;;13.12;100.00;101938.13;1047864;28;20350;-87
2023/05/08 00:39:56;;;;;;;20.08;17.90;;;;;;;13.06;100.00;101945.13;1047098;28;20044;-87
2023/05/08 00:40:28;;;;;;;19.80;17.85;;;;;;;12.99;100.00;101938.97;1051970;28;20306;-87
2023/05/08 00:41:00;;;;;;;18.42;16.67;;;;;;;12.94;100.00;101944.13;1051448;28;20289;-86
2023/05/08 00:41:32;;;;;;;19.40;17.60;;;;;;;12.93;100.00;101939.78;1048156;28;20811;-87
2023/05/08 00:42:03;;;;;;;19.98;17.95;;;;;;;13.04;100.00;101939.16;1047188;28;20309;-87
2023/05/08 00:42:36;;;;;;;19.45;17.55;;;;;;;13.07;100.00;101943.28;1040224;28;20303;-87
2023/05/08 00:43:07;;;;;;;17.40;15.80;;;;;;;13.01;100.00;101936.91;1044631;28;20287;-88
2023/05/08 00:43:39;;;;;;;20.63;18.27;;;;;;;13.05;100.00;101938.13;1043507;28;20298;-86
2023/05/08 00:44:11;;;;;;;19.35;17.45;;;;;;;12.98;100.00;101931.97;1039626;28;20041;-87
2023/05/08 00:44:42;;;;;;;17.45;15.60;;;;;;;13.08;100.00;101936.91;1039831;28;21317;-87
2023/05/08 00:45:14;;;;;;;18.55;16.73;;;;;;;13.04;100.00;101936.50;1043580;28;20295;-87
2023/05/08 00:45:46;;;;;;;17.83;15.93;;;;;;;13.20;100.00;101936.13;1044359;28;20302;-87
2023/05/08 00:46:17;;;;;;;17.58;15.68;;;;;;;13.05;100.00;101938.13;1048015;28;20051;-87
2023/05/08 00:46:50;;;;;;;21.77;15.82;;;;;;;13.08;100.00;101937.72;1047874;28;20783;-87
2023/05/08 00:47:22;;;;;;;17.70;15.85;;;;;;;13.20;100.00;101941.47;1039805;28;20045;-87
2023/05/08 00:47:54;;;;;;;18.67;16.48;;;;;;;13.18;100.00;101932.84;1040122;28;20439;-86
2023/05/08 00:48:30;;;;;;;19.50;16.85;;;;;;;13.23;100.00;101930.34;1040236;28;20833;-87
2023/05/08 00:49:03;;;;;;;20.65;16.65;;;;;;;13.29;100.00;101932.19;1041718;28;20519;-87
2023/05/08 00:49:35;;;;;;;18.02;16.38;;;;;;;13.37;100.00;101928.47;1047759;28;20341;-87
2023/05/08 00:50:07;;;;;;;17.08;15.38;;;;;;;13.49;100.00;101934.03;1045500;28;20291;-87
2023/05/08 00:50:39;;;;;;;17.95;16.25;;;;;;;13.57;100.00;101931.94;1044334;28;20389;-87
2023/05/08 00:51:12;;;;;;;18.67;16.77;;;;;;;13.61;100.00;101930.50;1047995;28;20310;-87
2023/05/08 00:51:45;;;;;;;18.63;16.85;;;;;;;13.60;100.00;101933.38;1048064;28;20634;-87
2023/05/08 00:52:18;;;;;;;18.20;16.25;;;;;;;13.57;100.00;101920.41;1044591;28;20291;-87
2023/05/08 00:52:49;;;;;;;18.83;17.08;;;;;;;13.57;100.00;101925.78;1047423;28;20302;-87
2023/05/08 00:53:22;;;;;;;17.75;16.05;;;;;;;13.52;100.00;101930.94;1048055;28;20658;-86
2023/05/08 00:53:53;;;;;;;18.40;16.67;;;;;;;13.57;100.00;101931.13;1051958;28;20336;-87
2023/05/08 00:54:26;;;;;;;18.13;16.20;;;;;;;13.52;100.00;101930.94;1051502;28;20314;-87
2023/05/08 00:54:59;;;;;;;17.85;16.15;;;;;;;13.54;100.00;101934.22;1051560;28;20047;-86
2023/05/08 00:55:31;;;;;;;18.83;16.92;;;;;;;13.49;100.00;101928.69;1051811;28;20767;-87
2023/05/08 00:56:04;;;;;;;19.05;17.27;;;;;;;13.48;100.00;101933.22;1051964;28;20309;-87
2023/05/08 00:56:37;;;;;;;18.33;16.58;;;;;;;13.51;100.00;101937.31;1052005;28;20309;-87
2023/05/08 00:57:09;;;;;;;19.13;17.02;;;;;;;13.46;100.00;101932.59;1047682;28;20357;-87
2023/05/08 00:57:41;;;;;;;19.05;17.15;;;;;;;13.52;100.00;101934.44;1047499;28;20295;-87
2023/05/08 00:58:13;;;;;;;18.13;16.40;;;;;;;13.56;100.00;101927.63;1043652;28;20381;-87
2023/05/08 00:58:46;;;;;;;21.50;16.65;;;;;;;13.63;100.00;101930.28;1045561;28;20349;-87
2023/05/08 00:59:19;;;;;;;18.02;16.23;;;;;;;13.58;100.00;101932.78;1047040;28;20294;-87
2023/05/08 00:59:51;;;;;;;24.35;15.77;;;;;;;13.52;100.00;101930.94;1044362;28;20298;-86
2023/05/08 01:00:23;;;;;;;20.10;18.10;;;;;;;13.57;100.00;101933.81;1047038;28;20769;-87
2023/05/08 01:00:55;;;;;;;20.55;16.15;;;;;;;13.50;100.00;101931.16;1040084;28;20426;-87
2023/05/08 01:01:27;;;;;;;18.15;16.38;;;;;;;13.52;100.00;101933.63;1039492;28;20327;-87
2023/05/08 01:02:00;;;;;;;18.35;16.45;;;;;;;13.47;100.00;101930.75;1039057;28;20307;-87
2023/05/08 01:02:32;;;;;;;18.45;16.58;;;;;;;13.43;100.00;101932.19;1044409;28;20306;-87
2023/05/08 01:03:04;;;;;;;19.35;17.55;;;;;;;13.41;100.00;101931.56;1045454;28;20867;-87
2023/05/08 01:03:36;;;;;;;18.60;16.85;;;;;;;13.42;100.00;101934.06;1047358;28;20820;-86
2023/05/08 01:04:09;;;;;;;17.52;15.85;;;;;;;13.26;100.00;101932.63;1039220;28;20295;-87
2023/05/08 01:04:43;;;;;;;17.92;16.02;;;;;;;13.34;100.00;101930.75;1040055;28;20304;-87
2023/05/08 01:05:14;;;;;;;20.20;18.17;;;;;;;13.28;100.00;101933.22;1039421;28;20303;-87
2023/05/08 01:05:47;;;;;;;19.60;17.60;;;;;;;13.15;100.00;101933.22;1041440;28;20300;-87
2023/05/08 01:06:19;;;;;;;19.95;17.90;;;;;;;13.19;100.00;101929.13;1043480;28;20319;-87
2023/05/08 01:06:50;;;;;;;17.65;15.85;;;;;;;13.18;100.00;101934.69;1045206;28;20670;-87
2023/05/08 01:07:22;;;;;;;16.08;14.50;;;;;;;13.18;100.00;101932.84;1047846;28;20653;-87
2023/05/08 01:07:54;;;;;;;18.25;16.45;;;;;;;13.10;100.00;101929.50;1047945;28;20677;-87
2023/05/08 01:08:26;;;;;;;17.13;15.68;;;;;;;13.31;100.00;101929.31;1047445;28;20032;-87
2023/05/08 01:08:57;;;;;;;19.85;17.85;;;;;;;13.41;100.00;101926.22;1043694;28;20049;-87
2023/05/08 01:09:30;;;;;;;19.73;17.60;;;;;;;13.54;100.00;101934.22;1035138;28;20464;-87
2023/05/08 01:10:01;;;;;;;20.90;18.85;;;;;;;13.59;100.00;101926.38;1035281;28;20304;-87
2023/05/08 01:10:51;;;;;;;19.67;17.80;;;;;;;13.65;100.00;101922.88;1036181;28;20992;-87
2023/05/08 01:11:31;;;;;;;18.73;16.90;;;;;;;13.67;100.00;101931.50;1042576;28;20423;-87
2023/05/08 01:12:21;;;;;;;19.52;17.73;;;;;;;13.58;100.00;101922.06;1053865;28;20312;-87
2023/05/08 01:13:28;;;;;;;19.67;17.88;;;;;;;13.64;100.00;101931.94;1056108;28;20039;-87
2023/05/08 01:14:06;;;;;;;19.42;15.63;;;;;;;13.64;100.00;101926.56;1046390;28;20467;-87
2023/05/08 01:14:58;;;;;;;17.85;16.05;;;;;;;13.66;100.00;101929.03;1049251;28;20294;-87
2023/05/08 01:15:35;;;;;;;16.80;14.68;;;;;;;13.61;100.00;101925.16;1050487;28;20291;-87
2023/05/08 01:16:15;;;;;;;19.02;15.57;;;;;;;13.55;100.00;101930.53;1047863;28;20302;-87
2023/05/08 01:16:56;;;;;;;19.33;17.25;;;;;;;13.32;100.00;101922.13;1043382;28;20346;-87
2023/05/08 01:18:15;;;;;;;18.63;15.80;;;;;;;13.13;100.00;101927.22;1039231;28;20511;-87
2023/05/08 01:18:54;;;;;;;17.35;15.73;;;;;;;13.13;100.00;101918.38;1038627;28;20056;-87
2023/05/08 01:19:47;;;;;;;19.80;16.15;;;;;;;13.02;100.00;101927.84;1042802;28;20705;-87
2023/05/08 01:20:19;;;;;;;17.90;16.05;;;;;;;13.05;100.00;101922.09;1042871;28;20658;-87
2023/05/08 01:20:59;;;;;;;19.98;17.90;;;;;;;13.06;100.00;101922.91;1043210;28;20311;-85
2023/05/08 01:21:42;;;;;;;21.08;17.75;;;;;;;12.91;100.00;101923.13;1044574;28;20295;-87
2023/05/08 01:22:32;;;;;;;18.55;16.60;;;;;;;13.06;100.00;101921.06;1039563;28;20160;-87
2023/05/08 01:23:31;;;;;;;18.10;16.25;;;;;;;13.07;100.00;101930.72;1043775;28;20860;-87
2023/05/08 01:24:16;;;;;;;18.25;16.40;;;;;;;13.14;100.00;101923.53;1056870;27;20126;-87
2023/05/08 01:25:03;;;;;;;18.80;16.38;;;;;;;13.09;100.00;101923.31;1053901;28;20353;-87
2023/05/08 01:26:01;;;;;;;19.02;17.02;;;;;;;13.05;100.00;101922.09;1049203;28;20294;-87
2023/05/08 01:26:54;;;;;;;17.83;16.10;;;;;;;13.11;100.00;101929.28;1049417;28;20707;-87
2023/05/08 01:27:39;;;;;;;17.65;15.63;;;;;;;13.08;100.00;101935.06;1047882;28;20791;-87
2023/05/08 01:28:35;;;;;;;19.65;15.57;;;;;;;13.21;100.00;101932.44;1048254;28;20314;-87
2023/05/08 01:29:34;;;;;;;18.20;16.27;;;;;;;13.13;100.00;101935.25;1050554;28;20837;-87
2023/05/08 01:30:27;;;;;;;18.73;16.77;;;;;;;12.98;100.00;101934.66;1043258;28;20379;-87
2023/05/08 01:31:36;;;;;;;16.35;14.75;;;;;;;12.99;100.00;101938.97;1046938;28;20310;-87
2023/05/08 01:32:10;;;;;;;23.55;15.93;;;;;;;12.93;100.00;101939.78;1058629;27;20300;-87
2023/05/08 01:32:45;;;;;;;20.13;15.98;;;;;;;12.96;100.00;101939.38;1053726;28;20313;-87
2023/05/08 01:33:24;;;;;;;18.27;15.90;;;;;;;12.97;100.00;101935.69;1046094;28;20292;-87
2023/05/08 01:34:21;;;;;;;18.00;16.10;;;;;;;13.02;100.00;101938.56;1043600;28;20388;-87
2023/05/08 01:35:10;;;;;;;18.45;16.65;;;;;;;13.03;100.00;101940.19;1036124;28;20312;-87
2023/05/08 01:35:45;;;;;;;18.45;16.45;;;;;;;12.96;100.00;101940.22;1044866;28;20306;-87
2023/05/08 01:36:20;;;;;;;17.80;15.82;;;;;;;12.91;100.00;101942.69;1047544;28;20424;-87
2023/05/08 01:37:04;;;;;;;18.95;17.05;;;;;;;12.91;100.00;101934.66;1051612;28;20771;-87
2023/05/08 01:37:47;;;;;;;18.80;16.80;;;;;;;13.13;100.00;101934.44;1047856;28;20301;-88
2023/05/08 01:38:56;;;;;;;20.65;16.83;;;;;;;13.34;100.00;101925.41;1042796;28;20522;-87
2023/05/08 01:39:57;;;;;;;18.38;16.48;;;;;;;13.39;100.00;101929.09;1046244;28;20307;-87
2023/05/08 01:40:32;;;;;;;21.02;17.88;;;;;;;13.33;100.00;101926.44;1034941;28;20316;-84
2023/05/08 01:41:16;;;;;;;18.52;16.63;;;;;;;13.35;100.00;101927.88;1044196;28;20413;-87
2023/05/08 01:42:00;;;;;;;18.20;16.30;;;;;;;13.38;100.00;101927.44;1047639;28;20646;-87
2023/05/08 01:42:43;;;;;;;20.25;18.10;;;;;;;13.35;100.00;101932.41;1047840;28;20955;-86
2023/05/08 01:43:35;;;;;;;19.90;17.60;;;;;;;13.33;100.00;101934.47;1045765;28;21615;-87
2023/05/08 01:44:16;;;;;;;22.63;17.00;;;;;;;13.31;100.00;101918.63;1051864;28;20290;-87
2023/05/08 01:44:52;;;;;;;18.65;16.73;;;;;;;13.26;100.00;101929.94;1047411;28;20377;-87
2023/05/08 01:45:36;;;;;;;19.25;17.23;;;;;;;13.21;100.00;101916.38;1047193;28;20048;-87
2023/05/08 01:46:12;;;;;;;18.63;15.63;;;;;;;13.12;100.00;101922.91;1047480;28;20302;-87
2023/05/08 01:46:47;;;;;;;19.05;17.00;;;;;;;13.16;100.00;101923.34;1046585;28;20295;-87
2023/05/08 01:47:20;;;;;;;22.40;17.48;;;;;;;13.18;100.00;101924.00;1043230;28;20299;-87
2023/05/08 01:48:00;;;;;;;18.50;16.70;;;;;;;13.16;100.00;101921.50;1044878;28;20306;-87
2023/05/08 01:48:33;;;;;;;20.58;18.38;;;;;;;13.15;100.00;101917.19;1049521;28;20299;-87
2023/05/08 01:49:11;;;;;;;19.85;17.25;;;;;;;13.14;100.00;101915.50;1047386;28;20147;-87
2023/05/08 01:49:46;;;;;;;19.60;17.38;;;;;;;13.12;100.00;101922.91;1043169;28;20307;-86
2023/05/08 01:50:23;;;;;;;20.25;18.15;;;;;;;13.09;100.00;101917.97;1037302;28;20674;-87
2023/05/08 01:51:00;;;;;;;21.30;19.15;;;;;;;13.10;100.00;101916.94;1033600;28;20352;-87
2023/05/08 01:51:38;;;;;;;21.02;17.65;;;;;;;13.11;100.00;101921.25;1041872;28;20306;-86
2023/05/08 01:52:17;;;;;;;20.95;18.80;;;;;;;13.11;100.00;101921.25;1043224;28;20304;-87
2023/05/08 01:52:52;;;;;;;19.52;17.70;;;;;;;13.14;100.00;101925.38;1043158;28;20296;-87
2023/05/08 01:53:28;;;;;;;20.63;18.50;;;;;;;13.11;100.00;101915.91;1040528;28;20867;-87
2023/05/08 01:54:03;;;;;;;20.60;18.50;;;;;;;13.10;100.00;101922.28;1040413;28;20285;-86
2023/05/08 01:54:46;;;;;;;23.48;18.77;;;;;;;13.11;100.00;101921.25;1044478;28;20310;-87
2023/05/08 01:55:36;;;;;;;25.27;16.95;;;;;;;13.04;100.00;101925.81;1046763;28;20297;-87
2023/05/08 01:56:16;;;;;;;19.38;17.08;;;;;;;12.93;100.00;101921.06;1047715;28;20299;-87
2023/05/08 01:56:47;;;;;;;19.05;17.02;;;;;;;12.87;100.00;101924.53;1041491;28;20670;-87
2023/05/08 01:57:21;;;;;;;20.02;18.02;;;;;;;12.85;100.00;101921.25;1043436;28;20318;-87
2023/05/08 01:57:57;;;;;;;19.88;17.50;;;;;;;12.89;100.00;101925.19;1047395;28;20298;-86
2023/05/08 01:58:29;;;;;;;23.63;17.30;;;;;;;12.84;100.00;101927.63;1047005;28;20330;-87
2023/05/08 01:59:01;;;;;;;20.30;18.20;;;;;;;12.68;100.00;101926.19;1041580;28;20323;-87
2023/05/08 01:59:34;;;;;;;20.85;16.52;;;;;;;12.65;100.00;101922.06;1039416;28;20296;-87
2023/05/08 02:00:07;;;;;;;19.83;17.85;;;;;;;12.56;100.00;101917.94;1043191;28;20358;-87
2023/05/08 02:00:42;;;;;;;20.73;18.45;;;;;;;12.52;100.00;101922.03;1043328;28;20287;-87
2023/05/08 02:01:17;;;;;;;20.33;18.13;;;;;;;12.58;100.00;101926.56;1049957;28;20303;-86
2023/05/08 02:01:52;;;;;;;20.77;17.15;;;;;;;12.51;100.00;101931.09;1057336;28;20761;-87
2023/05/08 02:02:26;;;;;;;23.70;17.98;;;;;;;12.48;100.00;101928.81;1051622;28;20302;-87
2023/05/08 02:02:58;;;;;;;20.55;16.58;;;;;;;12.44;100.00;101930.25;1048637;28;20297;-87
2023/05/08 02:03:31;;;;;;;22.85;18.00;;;;;;;12.45;100.00;101920.38;1043617;28;20303;-87
2023/05/08 02:04:05;;;;;;;22.13;18.23;;;;;;;12.44;100.00;101927.56;1035536;28;20317;-87
2023/05/08 02:04:38;;;;;;;19.33;17.42;;;;;;;12.61;100.00;101926.19;1040282;28;20295;-87
2023/05/08 02:05:11;;;;;;;19.70;17.55;;;;;;;12.78;100.00;101925.78;1038995;28;20303;-87
2023/05/08 02:05:43;;;;;;;19.65;17.55;;;;;;;12.80;100.00;101929.06;1045824;28;20303;-87
2023/05/08 02:06:19;;;;;;;19.48;17.58;;;;;;;12.90;100.00;101924.16;1041963;28;20296;-86
2023/05/08 02:06:51;;;;;;;19.38;17.38;;;;;;;12.99;100.00;101926.41;1044067;28;20306;-86
2023/05/08 02:07:24;;;;;;;20.35;18.17;;;;;;;13.00;100.00;101929.91;1042166;28;20295;-87
2023/05/08 02:07:57;;;;;;;20.90;18.73;;;;;;;12.90;100.00;101924.16;1040126;28;20727;-87
2023/05/08 02:08:31;;;;;;;19.77;17.77;;;;;;;12.79;100.00;101927.44;1039598;28;20702;-86
2023/05/08 02:09:02;;;;;;;20.63;18.45;;;;;;;12.82;100.00;101924.34;1039226;28;20318;-87
2023/05/08 02:09:35;;;;;;;18.50;16.67;;;;;;;12.91;100.00;101926.63;1040651;28;20310;-85
2023/05/08 02:10:07;;;;;;;19.20;16.83;;;;;;;12.97;100.00;101930.34;1043819;28;20302;-87
2023/05/08 02:10:40;;;;;;;20.52;17.98;;;;;;;12.94;100.00;101928.91;1039492;28;20371;-87
2023/05/08 02:11:13;;;;;;;20.40;16.58;;;;;;;12.93;100.00;101927.25;1039446;28;20288;-86
2023/05/08 02:11:45;;;;;;;19.50;17.42;;;;;;;12.65;100.00;101932.78;1039088;28;20315;-87
2023/05/08 02:12:21;;;;;;;19.63;17.52;;;;;;;12.56;100.00;101936.63;1039195;28;20332;-86
2023/05/08 02:12:54;;;;;;;21.35;16.83;;;;;;;12.52;100.00;101931.91;1034900;28;20348;-87
2023/05/08 02:13:26;;;;;;;19.65;17.75;;;;;;;12.45;100.00;101934.56;1036645;28;20644;-87
2023/05/08 02:14:00;;;;;;;19.75;17.73;;;;;;;12.39;100.00;101932.72;1036642;28;20289;-86
2023/05/08 02:14:32;;;;;;;19.10;17.10;;;;;;;12.50;100.00;101934.78;1041157;28;20299;-87
2023/05/08 02:15:05;;;;;;;19.45;17.45;;;;;;;12.47;100.00;101929.03;1044265;28;20299;-87
2023/05/08 02:15:37;;;;;;;19.27;16.77;;;;;;;12.49;100.00;101933.13;1044420;28;20276;-87
2023/05/08 02:16:11;;;;;;;19.70;17.33;;;;;;;12.36;100.00;101938.47;1043406;28;20310;-86
2023/05/08 02:16:44;;;;;;;19.67;17.77;;;;;;;12.42;100.00;101943.00;1039213;28;20339;-86
2023/05/08 02:17:16;;;;;;;18.40;16.55;;;;;;;12.48;100.00;101941.34;1031900;28;20313;-87
2023/05/08 02:17:48;;;;;;;22.45;18.70;;;;;;;12.46;100.00;101938.06;1035921;28;20305;-87
2023/05/08 02:18:22;;;;;;;20.20;18.00;;;;;;;12.37;100.00;101937.44;1042698;28;20327;-87
2023/05/08 02:18:56;;;;;;;22.35;17.55;;;;;;;12.39;100.00;101943.41;1043543;28;20823;-87
2023/05/08 02:19:28;;;;;;;21.27;19.10;;;;;;;12.30;100.00;101929.38;1044188;28;20858;-87
2023/05/08 02:20:02;;;;;;;18.48;16.77;;;;;;;12.52;100.00;101932.72;1033336;28;20732;-87
2023/05/08 02:20:34;;;;;;;21.60;18.30;;;;;;;12.46;100.00;101935.38;1030983;28;20307;-87
2023/05/08 02:21:08;;;;;;;19.75;17.75;;;;;;;12.45;100.00;101937.25;1036146;28;20783;-87
2023/05/08 02:21:40;;;;;;;19.65;17.63;;;;;;;12.29;100.00;101935.75;1035524;28;20300;-86
2023/05/08 02:22:12;;;;;;;19.95;18.00;;;;;;;12.34;100.00;101936.00;1044004;28;20358;-85
2023/05/08 02:22:44;;;;;;;19.60;17.42;;;;;;;12.38;100.00;101933.72;1048391;28;20298;-87
2023/05/08 02:23:34;;;;;;;20.23;17.65;;;;;;;12.55;100.00;101943.00;1050782;28;20301;-85
2023/05/08 02:24:07;;;;;;;20.38;17.45;;;;;;;12.65;100.00;101938.13;1047466;28;20040;-87
2023/05/08 02:24:39;;;;;;;19.20;16.90;;;;;;;12.67;100.00;101941.41;1047462;28;20653;-87
2023/05/08 02:25:13;;;;;;;21.92;17.73;;;;;;;12.50;100.00;101942.78;1049899;28;20768;-87
2023/05/08 02:25:46;;;;;;;18.88;16.88;;;;;;;12.52;100.00;101939.91;1047685;28;20302;-87
2023/05/08 02:26:18;;;;;;;20.38;18.30;;;;;;;12.62;100.00;101938.53;1042948;28;20828;-86
2023/05/08 02:26:50;;;;;;;22.60;17.80;;;;;;;12.57;100.00;101940.97;1034932;28;20305;-87
2023/05/08 02:27:24;;;;;;;21.75;17.50;;;;;;;12.36;100.00;101941.94;1036002;28;20305;-87
2023/05/08 02:27:57;;;;;;;18.83;16.90;;;;;;;12.17;100.00;101936.53;1040238;28;20300;-87
2023/05/08 02:28:28;;;;;;;20.38;18.27;;;;;;;12.06;100.00;101938.75;1040528;28;20299;-87
2023/05/08 02:29:02;;;;;;;18.77;16.95;;;;;;;12.05;100.00;101942.47;1036929;28;20320;-87
2023/05/08 02:29:35;;;;;;;18.42;16.50;;;;;;;12.16;100.00;101937.56;1038667;28;20304;-87
2023/05/08 02:30:07;;;;;;;19.92;17.88;;;;;;;12.17;100.00;101945.38;1038911;28;20304;-87
2023/05/08 02:30:39;;;;;;;21.27;19.08;;;;;;;12.16;100.00;101937.56;1039575;28;20698;-87
2023/05/08 02:31:11;;;;;;;20.23;18.10;;;;;;;12.22;100.00;101936.75;1035081;28;20300;-87
2023/05/08 02:31:44;;;;;;;19.10;17.10;;;;;;;12.23;100.00;101938.41;1039171;28;20300;-87
2023/05/08 02:32:17;;;;;;;20.58;18.48;;;;;;;12.23;100.00;101939.22;1035073;28;20380;-87
2023/05/08 02:32:49;;;;;;;19.60;17.55;;;;;;;12.15;100.00;101938.59;1039867;28;20429;-87
2023/05/08 02:33:21;;;;;;;21.60;17.90;;;;;;;12.15;100.00;101938.59;1040147;28;20300;-86
2023/05/08 02:33:54;;;;;;;20.10;17.85;;;;;;;12.15;100.00;101943.91;1035726;28;20038;-87
2023/05/08 02:34:26;;;;;;;19.08;16.95;;;;;;;12.12;100.00;101938.97;1036340;28;20323;-87
2023/05/08 02:34:57;;;;;;;22.67;17.70;;;;;;;12.13;100.00;101937.97;1041171;28;20303;-87
2023/05/08 02:35:36;;;;;;;19.15;17.35;;;;;;;12.09;100.00;101937.53;1038056;28;21206;-86
2023/05/08 02:36:10;;;;;;;18.92;16.95;;;;;;;12.19;100.00;101939.81;1037504;28;20396;-86
2023/05/08 02:36:42;;;;;;;18.20;16.33;;;;;;;12.12;100.00;101941.66;1041004;28;20319;-87
2023/05/08 02:37:13;;;;;;;19.45;16.95;;;;;;;12.11;100.00;101942.69;1044954;28;20299;-87
2023/05/08 02:37:56;;;;;;;19.20;17.20;;;;;;;12.07;100.00;101940.41;1040317;28;20308;-87
2023/05/08 02:38:29;;;;;;;19.42;17.52;;;;;;;12.08;100.00;101943.91;1035840;28;20300;-86